Cap Jackson — A8VL6 — position and weather

sailwx.info

Track history (hours):
 
Tides and Currents Weather Stations Pressure Air Temp Water Temp Dewpoint Dewpoint Depression Visibility Wind Speed Wind Dir Waves Ship Positions

Cap Jackson

Last reported at 2017-Nov-16 04:29 UTC. Time now 2017-Nov-19 06:32 UTC.
Position N 16°14' W 062°42'.

Length 264 m; draft 10.5 m.

Type: Ship (hazmat cat A). MMSI: 636092020.

Date/timePositionNaut miles runAvg speedWind from/ knotsBaromVisibWave heightAir tempDewpointWater temp
2017-Nov-16 04:29N 16°14' W 062°42'918.4
2017-Nov-16 04:00N 16°17' W 062°34'918.5
2017-Nov-16 03:30N 16°21' W 062°25'918.7
2017-Nov-16 03:01N 16°24' W 062°16'918.6
2017-Nov-16 02:30N 16°28' W 062°07'918.7
2017-Nov-16 02:00N 16°31' W 061°58'918.4
2017-Nov-16 01:31N 16°36' W 061°49'918.5
2017-Nov-16 01:01N 16°41' W 061°41'918.3
2017-Nov-16 00:30N 16°46' W 061°33'918.4
2017-Nov-16 00:00N 16°51' W 061°25'918.5
2017-Nov-15 23:30N 16°56' W 061°17'918.0
2017-Nov-15 23:00N 17°01' W 061°09'917.8
2017-Nov-15 22:30N 17°06' W 061°01'917.8
2017-Nov-15 22:00N 17°11' W 060°53'  
2017-Nov-08 16:18N 37°09' W 001°10'720.2
2017-Nov-08 15:58N 37°13' W 001°03'920.3
2017-Nov-08 15:30N 37°20' W 000°54'1020.3
2017-Nov-08 15:00N 37°26' W 000°45'1019.9
2017-Nov-08 14:30N 37°33' W 000°35'1019.6
2017-Nov-08 14:00N 37°41' W 000°28'1019.6
2017-Nov-08 13:29N 37°49' W 000°21'206 5.8
2017-Nov-07 02:11N 40°49' E 001°48'318.2
2017-Nov-07 02:00N 40°52' E 001°51'918.2
2017-Nov-07 01:30N 40°59' E 001°57'917.9
2017-Nov-07 01:00N 41°07' E 002°03'1017.2
2017-Nov-07 00:26N 41°15' E 002°10'  
Track history (hours):
 
Tides and Currents Weather Stations Pressure Air Temp Water Temp Dewpoint Dewpoint Depression Visibility Wind Speed Wind Dir Waves Ship Positions

Cap Jackson

Last reported at 2017-Nov-16 04:29 UTC. Time now 2017-Nov-19 06:32 UTC.
Position N 16°14' W 062°42'.

Length 264 m; draft 10.5 m.

Type: Ship (hazmat cat A). MMSI: 636092020.

Date/timePositionNaut miles runAvg speedWind from/ knotsBaromVisibWave heightAir tempDewpointWater temp
2017-Nov-16 04:29N 16°14' W 062°42'918.4
2017-Nov-16 04:00N 16°17' W 062°34'918.5
2017-Nov-16 03:30N 16°21' W 062°25'918.7
2017-Nov-16 03:01N 16°24' W 062°16'918.6
2017-Nov-16 02:30N 16°28' W 062°07'918.7
2017-Nov-16 02:00N 16°31' W 061°58'918.4
2017-Nov-16 01:31N 16°36' W 061°49'918.5
2017-Nov-16 01:01N 16°41' W 061°41'918.3
2017-Nov-16 00:30N 16°46' W 061°33'918.4
2017-Nov-16 00:00N 16°51' W 061°25'918.5
2017-Nov-15 23:30N 16°56' W 061°17'918.0
2017-Nov-15 23:00N 17°01' W 061°09'917.8
2017-Nov-15 22:30N 17°06' W 061°01'917.8
2017-Nov-15 22:00N 17°11' W 060°53'  
2017-Nov-08 16:18N 37°09' W 001°10'720.2
2017-Nov-08 15:58N 37°13' W 001°03'920.3
2017-Nov-08 15:30N 37°20' W 000°54'1020.3
2017-Nov-08 15:00N 37°26' W 000°45'1019.9
2017-Nov-08 14:30N 37°33' W 000°35'1019.6
2017-Nov-08 14:00N 37°41' W 000°28'1019.6
2017-Nov-08 13:29N 37°49' W 000°21'206 5.8
2017-Nov-07 02:11N 40°49' E 001°48'318.2
2017-Nov-07 02:00N 40°52' E 001°51'918.2
2017-Nov-07 01:30N 40°59' E 001°57'917.9
2017-Nov-07 01:00N 41°07' E 002°03'1017.2
2017-Nov-07 00:26N 41°15' E 002°10'  

Dump ship's entire track history